Time;durP1;ratioP1;P1;durP2;ratioP2;P2;SDS_P1;SDS_P2;PMS_P1;PMS_P2;Temp;Humidity;BMP_temperature;BMP_pressure;BME280_temperature;BME280_humidity;BME280_pressure;Samples;Min_cycle;Max_cycle;Signal;HPM_P1;HPM_P2
2022/05/02 00:02:17;;;;;;;4.83;4.33;;;12.10;71.40;;;;;;927864;154;27274;-73
2022/05/02 00:04:44;;;;;;;5.13;4.67;;;12.00;71.50;;;;;;928133;151;27385;-73
2022/05/02 00:07:10;;;;;;;4.83;4.43;;;12.00;70.90;;;;;;929314;152;27427;-74
2022/05/02 00:09:37;;;;;;;4.70;4.20;;;11.90;71.80;;;;;;942984;151;27431;-74
2022/05/02 00:12:04;;;;;;;5.10;4.37;;;11.90;72.00;;;;;;942613;151;27341;-74
2022/05/02 00:14:30;;;;;;;5.63;4.83;;;11.90;72.20;;;;;;942682;149;27395;-74
2022/05/02 00:16:57;;;;;;;5.07;4.57;;;11.90;72.50;;;;;;944103;149;27379;-73
2022/05/02 00:19:24;;;;;;;4.90;4.40;;;11.90;72.80;;;;;;929087;151;27356;-74
2022/05/02 00:21:50;;;;;;;4.80;4.40;;;11.90;72.90;;;;;;927223;152;27366;-74
2022/05/02 00:24:17;;;;;;;6.13;5.53;;;11.90;73.50;;;;;;926804;151;27487;-73
2022/05/02 00:26:43;;;;;;;4.97;4.53;;;11.90;73.20;;;;;;939019;152;27400;-74
2022/05/02 00:29:10;;;;;;;6.33;5.27;;;11.90;73.50;;;;;;942111;149;27356;-74
2022/05/02 00:31:36;;;;;;;5.00;4.60;;;11.90;73.60;;;;;;945634;147;28014;-73
2022/05/02 00:34:03;;;;;;;4.87;4.47;;;11.90;73.80;;;;;;943493;149;27386;-73
2022/05/02 00:36:30;;;;;;;5.00;4.50;;;11.90;73.80;;;;;;944270;149;27364;-74
2022/05/02 00:38:56;;;;;;;5.57;5.07;;;11.90;73.80;;;;;;944024;149;27320;-73
2022/05/02 00:41:23;;;;;;;5.30;4.80;;;11.90;73.60;;;;;;942811;149;27444;-74
2022/05/02 00:43:49;;;;;;;5.03;4.53;;;11.90;73.80;;;;;;942621;149;27402;-73
2022/05/02 00:46:16;;;;;;;8.00;4.63;;;11.90;73.90;;;;;;944015;149;27337;-74
2022/05/02 00:48:42;;;;;;;5.97;4.90;;;11.80;73.90;;;;;;941023;148;27453;-73
2022/05/02 00:51:09;;;;;;;6.87;5.07;;;11.80;74.10;;;;;;942481;148;27347;-74
2022/05/02 00:53:36;;;;;;;4.93;4.50;;;11.80;74.20;;;;;;943414;148;27345;-73
2022/05/02 00:56:02;;;;;;;4.60;4.20;;;11.70;74.20;;;;;;942581;149;27338;-73
2022/05/02 00:58:29;;;;;;;4.77;4.37;;;11.70;74.30;;;;;;941917;148;27470;-74
2022/05/02 01:00:55;;;;;;;4.63;3.93;;;11.70;74.30;;;;;;942678;148;27365;-74
2022/05/02 01:03:22;;;;;;;5.07;4.67;;;11.70;74.40;;;;;;942037;149;27423;-73
2022/05/02 01:08:33;;;;;;;5.37;4.87;;;11.60;74.40;;;;;;944004;149;27446;-74
2022/05/02 01:11:00;;;;;;;5.93;4.80;;;11.50;74.20;;;;;;942780;149;27395;-73
2022/05/02 01:13:36;;;;;;;4.57;4.17;;;11.50;74.90;;;;;;943090;149;27427;-73
2022/05/02 01:16:08;;;;;;;4.73;4.33;;;11.40;74.50;;;;;;941497;148;27403;-73
2022/05/02 01:18:34;;;;;;;4.80;4.40;;;11.30;74.40;;;;;;942496;148;27449;-73
2022/05/02 01:21:01;;;;;;;4.50;4.07;;;11.30;74.40;;;;;;942070;149;27325;-73
2022/05/02 01:23:28;;;;;;;5.53;5.03;;;11.20;74.60;;;;;;942607;148;27424;-73
2022/05/02 01:25:54;;;;;;;4.80;4.40;;;11.10;74.90;;;;;;943726;149;27434;-74
2022/05/02 01:28:21;;;;;;;5.17;4.40;;;11.10;75.10;;;;;;942618;149;27430;-73
2022/05/02 01:30:47;;;;;;;5.40;5.00;;;11.00;75.20;;;;;;937588;151;27437;-73
2022/05/02 01:33:14;;;;;;;5.40;4.90;;;10.90;75.20;;;;;;936624;152;27344;-74
2022/05/02 01:35:40;;;;;;;4.67;4.27;;;10.90;75.50;;;;;;935053;150;27289;-74
2022/05/02 01:38:07;;;;;;;5.50;5.03;;;10.80;75.70;;;;;;936629;152;27390;-73
2022/05/02 01:40:34;;;;;;;5.27;4.87;;;10.80;75.90;;;;;;926408;151;27375;-73
2022/05/02 01:43:00;;;;;;;4.97;4.57;;;10.70;76.10;;;;;;942887;148;27449;-74
2022/05/02 01:45:27;;;;;;;5.53;4.43;;;10.70;76.40;;;;;;942142;148;27354;-74
2022/05/02 01:47:53;;;;;;;5.37;4.87;;;10.60;76.40;;;;;;943590;149;27750;-73
2022/05/02 01:50:20;;;;;;;6.57;5.23;;;10.60;76.60;;;;;;942220;151;27442;-74
2022/05/02 01:52:47;;;;;;;4.97;4.47;;;10.60;76.60;;;;;;941927;149;27453;-73
2022/05/02 01:55:13;;;;;;;7.30;5.07;;;10.50;76.70;;;;;;942765;149;27359;-73
2022/05/02 01:57:40;;;;;;;4.80;4.27;;;10.50;76.80;;;;;;941195;149;27401;-73
2022/05/02 02:00:06;;;;;;;5.50;4.67;;;10.40;76.90;;;;;;941999;148;27480;-74
2022/05/02 02:02:33;;;;;;;5.10;4.60;;;10.40;77.10;;;;;;926324;154;27288;-74
2022/05/02 02:07:44;;;;;;;5.63;4.47;;;10.30;77.20;;;;;;944336;149;27353;-74
2022/05/02 02:10:11;;;;;;;4.43;4.10;;;10.30;77.10;;;;;;943174;149;27944;-74
2022/05/02 02:12:38;;;;;;;5.70;5.03;;;10.20;77.40;;;;;;943791;149;27281;-76
2022/05/02 02:15:04;;;;;;;4.90;4.40;;;10.10;77.50;;;;;;926724;151;27279;-76
2022/05/02 02:17:31;;;;;;;6.53;4.37;;;10.10;77.60;;;;;;945028;149;27336;-75
2022/05/02 02:19:57;;;;;;;4.60;4.20;;;10.00;77.70;;;;;;943364;149;27333;-75
2022/05/02 02:22:24;;;;;;;5.17;4.77;;;10.00;77.90;;;;;;942952;149;27452;-76
2022/05/02 02:24:50;;;;;;;5.50;4.97;;;10.00;78.00;;;;;;941396;151;27341;-75
2022/05/02 02:27:17;;;;;;;4.83;4.43;;;10.00;78.20;;;;;;942825;149;27397;-75
2022/05/02 02:29:44;;;;;;;5.57;4.73;;;9.90;78.30;;;;;;943121;148;27461;-74
2022/05/02 02:32:10;;;;;;;5.10;4.60;;;9.90;78.50;;;;;;942598;151;27321;-73
2022/05/02 02:34:37;;;;;;;5.90;5.30;;;9.80;78.60;;;;;;928246;152;27463;-74
2022/05/02 02:37:03;;;;;;;5.57;5.07;;;9.80;78.90;;;;;;928754;154;27322;-73
2022/05/02 02:39:30;;;;;;;5.23;4.60;;;9.70;79.10;;;;;;925585;151;27409;-74
2022/05/02 02:41:57;;;;;;;5.17;4.23;;;9.70;79.10;;;;;;942538;149;27440;-74
2022/05/02 02:44:23;;;;;;;5.10;4.67;;;9.70;79.20;;;;;;928443;154;27352;-74
2022/05/02 02:46:50;;;;;;;5.03;4.60;;;9.70;79.40;;;;;;942316;149;27421;-74
2022/05/02 02:49:16;;;;;;;4.70;4.30;;;9.60;79.60;;;;;;942088;149;27377;-74
2022/05/02 02:51:43;;;;;;;5.07;4.67;;;9.60;79.80;;;;;;944123;149;27312;-74
2022/05/02 02:54:09;;;;;;;4.60;4.20;;;9.60;79.90;;;;;;942420;151;27324;-74
2022/05/02 02:56:36;;;;;;;5.00;4.60;;;9.50;80.00;;;;;;928390;151;27530;-74
2022/05/02 02:59:03;;;;;;;4.80;4.40;;;9.50;80.90;;;;;;927703;151;27461;-73
2022/05/02 03:01:29;;;;;;;4.37;3.97;;;9.50;80.40;;;;;;927341;152;27396;-73
2022/05/02 03:03:56;;;;;;;5.40;4.90;;;9.50;80.60;;;;;;926551;151;27400;-73
2022/05/02 03:06:22;;;;;;;4.60;4.20;;;9.50;80.60;;;;;;926719;151;27419;-73
2022/05/02 03:08:49;;;;;;;4.90;4.47;;;9.40;80.70;;;;;;926286;152;27395;-74
2022/05/02 03:11:16;;;;;;;4.87;4.47;;;9.40;80.90;;;;;;926818;152;27296;-73
2022/05/02 03:13:42;;;;;;;6.27;4.40;;;9.40;81.00;;;;;;927072;154;27469;-73
2022/05/02 03:16:10;;;;;;;5.63;5.13;;;9.40;81.20;;;;;;927358;151;27388;-74
2022/05/02 03:18:35;;;;;;;6.53;5.33;;;9.30;82.00;;;;;;926956;152;27359;-73
2022/05/02 03:21:02;;;;;;;4.30;4.00;;;9.30;81.40;;;;;;926311;151;27431;-73
2022/05/02 03:23:28;;;;;;;5.17;4.77;;;9.30;81.50;;;;;;927200;151;27364;-73
2022/05/02 03:25:56;;;;;;;4.53;4.17;;;9.30;81.50;;;;;;927693;151;27423;-74
2022/05/02 03:28:22;;;;;;;5.90;4.60;;;9.20;81.50;;;;;;927517;151;27480;-73
2022/05/02 03:30:48;;;;;;;4.83;4.43;;;9.20;81.50;;;;;;927482;150;27914;-74
2022/05/02 03:33:15;;;;;;;5.43;4.53;;;9.10;82.50;;;;;;924709;152;27474;-74
2022/05/02 03:35:41;;;;;;;4.27;3.87;;;9.10;81.80;;;;;;928196;152;27327;-74
2022/05/02 03:38:08;;;;;;;5.30;4.67;;;9.10;82.00;;;;;;943776;149;27359;-74
2022/05/02 03:40:35;;;;;;;5.30;4.20;;;9.10;82.10;;;;;;942775;148;27487;-73
2022/05/02 03:43:01;;;;;;;4.47;4.10;;;9.00;82.20;;;;;;941861;148;27309;-74
2022/05/02 03:45:28;;;;;;;3.93;3.63;;;9.00;82.40;;;;;;942021;149;27449;-74
2022/05/02 03:47:54;;;;;;;7.83;4.73;;;9.00;82.40;;;;;;928909;154;27882;-74
2022/05/02 03:50:21;;;;;;;4.90;4.10;;;8.90;82.40;;;;;;927972;152;27349;-74
2022/05/02 03:52:47;;;;;;;4.43;4.07;;;8.90;82.50;;;;;;928404;152;27460;-74
2022/05/02 03:55:14;;;;;;;5.03;4.63;;;8.90;82.70;;;;;;929229;151;27466;-74
2022/05/02 03:57:41;;;;;;;4.43;4.03;;;8.90;82.80;;;;;;926114;151;27357;-73
2022/05/02 04:00:08;;;;;;;5.00;4.60;;;8.80;83.00;;;;;;942970;149;27878;-74
2022/05/02 04:02:36;;;;;;;4.53;4.13;;;8.80;83.30;;;;;;943419;149;27301;-74
2022/05/02 04:05:03;;;;;;;4.27;3.97;;;8.80;83.40;;;;;;942163;151;27445;-74
2022/05/02 04:07:30;;;;;;;5.03;4.63;;;8.80;83.50;;;;;;943408;149;27391;-74
2022/05/02 04:09:56;;;;;;;5.43;4.70;;;8.80;83.60;;;;;;942779;149;27333;-74
2022/05/02 04:12:23;;;;;;;5.13;4.63;;;8.80;83.80;;;;;;942914;149;27598;-74
2022/05/02 04:14:49;;;;;;;5.50;4.97;;;8.80;84.00;;;;;;927999;152;27362;-74
2022/05/02 04:17:16;;;;;;;5.30;4.80;;;8.80;84.20;;;;;;928316;152;27354;-74
2022/05/02 04:19:43;;;;;;;4.67;4.23;;;8.80;84.40;;;;;;926612;152;28464;-74
2022/05/02 04:22:09;;;;;;;5.17;4.67;;;8.70;84.50;;;;;;942606;148;27392;-74
2022/05/02 04:24:36;;;;;;;5.60;5.10;;;8.70;84.60;;;;;;943384;151;27430;-74
2022/05/02 04:27:02;;;;;;;5.23;4.83;;;8.80;84.70;;;;;;942856;148;27397;-74
2022/05/02 04:29:29;;;;;;;5.03;4.60;;;8.80;84.90;;;;;;926954;152;27348;-74
2022/05/02 04:31:55;;;;;;;5.20;4.70;;;8.80;84.90;;;;;;935217;149;27934;-74
2022/05/02 04:34:22;;;;;;;6.23;4.93;;;8.80;85.20;;;;;;940570;149;27346;-74
2022/05/02 04:36:49;;;;;;;5.60;4.33;;;8.80;85.20;;;;;;939822;149;27334;-74
2022/05/02 04:39:15;;;;;;;5.87;4.90;;;8.80;85.50;;;;;;938135;149;27359;-74
2022/05/02 04:41:42;;;;;;;4.97;4.43;;;8.80;85.70;;;;;;939695;149;27412;-75
2022/05/02 04:44:08;;;;;;;5.07;4.60;;;8.90;86.20;;;;;;940112;149;27375;-74
2022/05/02 04:46:35;;;;;;;4.93;4.43;;;8.90;86.60;;;;;;938856;149;27827;-74
2022/05/02 04:49:02;;;;;;;6.70;4.67;;;9.00;86.70;;;;;;939170;149;27947;-75
2022/05/02 04:51:28;;;;;;;7.17;4.70;;;9.10;87.00;;;;;;939133;149;27372;-74
2022/05/02 04:53:55;;;;;;;5.10;4.60;;;9.10;87.00;;;;;;940707;149;27262;-74
2022/05/02 04:56:21;;;;;;;5.40;5.00;;;9.20;87.10;;;;;;940261;149;27365;-74
2022/05/02 04:58:48;;;;;;;5.40;4.53;;;9.20;87.20;;;;;;939052;149;27372;-74
2022/05/02 05:01:14;;;;;;;5.60;5.10;;;9.30;87.30;;;;;;940752;149;27357;-74
2022/05/02 05:03:41;;;;;;;5.90;5.07;;;9.40;87.60;;;;;;941227;149;27315;-74
2022/05/02 05:06:08;;;;;;;5.70;5.20;;;9.50;87.80;;;;;;940088;149;27882;-75
2022/05/02 05:08:34;;;;;;;5.33;4.90;;;9.60;88.00;;;;;;940786;149;27362;-74
2022/05/02 05:11:04;;;;;;;6.30;4.77;;;9.70;88.20;;;;;;940260;149;27343;-74
2022/05/02 05:13:30;;;;;;;6.70;5.57;;;9.80;88.50;;;;;;934681;149;27343;-74
2022/05/02 05:16:21;;;;;;;5.27;4.83;;;10.00;89.50;;;;;;937316;149;27262;-74
2022/05/02 05:19:11;;;;;;;5.47;4.97;;;10.10;90.50;;;;;;943336;148;27413;-74
2022/05/02 05:22:12;;;;;;;6.70;5.53;;;10.50;91.60;;;;;;937902;149;27532;-74
2022/05/02 05:24:44;;;;;;;5.37;4.83;;;10.90;92.50;;;;;;938726;149;27708;-74
2022/05/02 05:27:32;;;;;;;6.23;4.80;;;11.60;93.30;;;;;;940204;149;27354;-74
2022/05/02 05:30:04;;;;;;;5.43;4.93;;;12.20;93.70;;;;;;940469;149;27443;-74
2022/05/02 05:32:55;;;;;;;4.40;4.10;;;12.90;93.70;;;;;;934121;149;27366;-74
2022/05/02 05:35:21;;;;;;;6.83;4.55;;;13.60;93.80;;;;;;925976;151;27351;-74
2022/05/02 05:38:03;;;;;;;5.08;4.67;;;14.50;93.50;;;;;;940916;149;27449;-74
2022/05/02 05:40:38;;;;;;;4.80;4.25;;;15.30;92.70;;;;;;941277;148;28995;-74
2022/05/02 05:43:42;;;;;;;4.70;4.33;;;16.10;91.60;;;;;;925940;153;27322;-74
2022/05/02 05:46:26;;;;;;;4.15;3.85;;;16.90;90.50;;;;;;924986;152;27365;-74
2022/05/02 05:49:08;;;;;;;5.50;4.90;;;17.80;88.40;;;;;;925640;151;27310;-75
2022/05/02 05:51:38;;;;;;;3.83;3.52;;;18.60;85.50;;;;;;942984;149;27331;-75
2022/05/02 05:54:25;;;;;;;4.05;3.65;;;19.30;82.80;;;;;;940847;148;27446;-75
2022/05/02 05:56:58;;;;;;;3.12;2.92;;;20.00;80.20;;;;;;943377;148;27929;-75
2022/05/02 05:59:33;;;;;;;3.42;2.95;;;20.60;77.50;;;;;;939837;149;27270;-75
2022/05/02 06:02:18;;;;;;;4.10;3.80;;;21.20;74.70;;;;;;941288;149;27727;-75
2022/05/02 06:04:45;;;;;;;3.20;3.00;;;21.70;72.00;;;;;;927016;153;27408;-74
2022/05/02 06:07:11;;;;;;;3.85;3.55;;;22.10;70.10;;;;;;924666;152;28207;-74
2022/05/02 06:09:38;;;;;;;3.40;3.20;;;22.50;68.60;;;;;;926583;154;27365;-74
2022/05/02 06:12:04;;;;;;;3.47;3.12;;;22.80;67.60;;;;;;926290;154;27407;-74
2022/05/02 06:14:31;;;;;;;3.50;3.27;;;23.30;66.90;;;;;;925497;154;27349;-74
2022/05/02 06:19:43;;;;;;;4.83;3.95;;;24.10;64.80;;;;;;941535;149;27890;-74
2022/05/02 06:22:09;;;;;;;3.52;3.27;;;24.60;64.30;;;;;;927197;154;27801;-74
2022/05/02 06:24:36;;;;;;;4.40;3.35;;;24.90;61.50;;;;;;928407;154;27309;-74
2022/05/02 06:27:03;;;;;;;4.50;4.10;;;25.10;59.60;;;;;;929090;152;27467;-74
2022/05/02 06:29:29;;;;;;;4.08;3.47;;;25.10;57.70;;;;;;926817;151;28327;-74
2022/05/02 06:31:58;;;;;;;3.67;3.37;;;25.10;57.10;;;;;;942467;149;27247;-74
2022/05/02 06:34:23;;;;;;;3.22;3.02;;;24.90;56.60;;;;;;940343;148;27435;-74
2022/05/02 06:37:01;;;;;;;3.67;3.37;;;24.60;56.00;;;;;;941708;148;27407;-74
2022/05/02 06:39:36;;;;;;;3.58;3.27;;;24.30;55.50;;;;;;942813;148;27340;-74
2022/05/02 06:42:11;;;;;;;3.90;3.40;;;24.00;55.60;;;;;;941506;148;27337;-74
2022/05/02 06:45:02;;;;;;;4.12;3.83;;;23.50;55.70;;;;;;941763;148;27364;-73
2022/05/02 06:47:44;;;;;;;4.40;4.00;;;23.10;56.00;;;;;;942403;148;27364;-73
2022/05/02 06:50:10;;;;;;;3.83;3.52;;;22.80;56.60;;;;;;942084;148;27352;-73
2022/05/02 06:52:40;;;;;;;3.77;3.47;;;22.50;57.00;;;;;;943317;148;27305;-74
2022/05/02 06:55:21;;;;;;;5.62;4.05;;;22.30;57.30;;;;;;940821;148;27305;-74
2022/05/02 06:58:06;;;;;;;3.77;3.47;;;22.10;57.30;;;;;;942761;148;27322;-74
2022/05/02 07:00:36;;;;;;;4.08;3.67;;;21.90;57.50;;;;;;943680;148;27406;-73
2022/05/02 07:03:06;;;;;;;4.65;4.25;;;21.70;57.30;;;;;;942045;148;27396;-73
2022/05/02 07:05:43;;;;;;;4.00;3.70;;;21.50;57.30;;;;;;943395;148;27360;-73
2022/05/02 07:08:10;;;;;;;4.30;3.85;;;21.20;57.40;;;;;;939609;149;27427;-74
2022/05/02 07:10:36;;;;;;;4.65;4.12;;;21.00;57.70;;;;;;940225;149;27388;-73
2022/05/02 07:13:18;;;;;;;4.30;3.92;;;20.80;58.00;;;;;;939227;149;27332;-73
2022/05/02 07:15:45;;;;;;;4.55;4.20;;;20.60;58.20;;;;;;938174;149;27358;-73
2022/05/02 07:18:48;;;;;;;4.33;3.92;;;20.40;58.40;;;;;;940002;149;28634;-73
2022/05/02 07:21:27;;;;;;;4.50;4.10;;;20.30;58.70;;;;;;940499;149;27459;-73
2022/05/02 07:24:02;;;;;;;7.30;5.75;;;20.20;59.00;;;;;;939542;149;27301;-74
2022/05/02 07:26:29;;;;;;;4.90;4.50;;;20.10;59.10;;;;;;940035;149;28096;-73
2022/05/02 07:28:55;;;;;;;4.40;4.10;;;20.00;59.20;;;;;;940947;149;27855;-74
2022/05/02 07:31:22;;;;;;;4.40;4.10;;;19.90;59.20;;;;;;939205;149;27395;-73
2022/05/02 07:33:48;;;;;;;5.08;3.60;;;19.70;59.30;;;;;;940814;149;27444;-73
2022/05/02 07:36:15;;;;;;;3.62;3.33;;;19.60;59.60;;;;;;939114;149;27330;-73
2022/05/02 07:38:41;;;;;;;4.03;3.72;;;19.60;59.70;;;;;;940503;149;27425;-73
2022/05/02 07:41:23;;;;;;;4.25;3.90;;;19.50;60.00;;;;;;939771;149;27401;-73
2022/05/02 07:43:50;;;;;;;4.62;4.28;;;19.50;60.10;;;;;;940595;149;27963;-73
2022/05/02 07:46:16;;;;;;;4.47;3.92;;;19.40;60.20;;;;;;938536;149;27360;-74
2022/05/02 07:48:43;;;;;;;5.30;3.90;;;19.40;60.40;;;;;;939397;149;27318;-73
2022/05/02 07:51:09;;;;;;;3.67;3.37;;;19.40;60.70;;;;;;941402;149;28030;-73
2022/05/02 07:53:37;;;;;;;3.80;3.45;;;19.40;60.90;;;;;;940842;149;27411;-73
2022/05/02 07:56:03;;;;;;;4.05;3.75;;;19.40;60.90;;;;;;939733;149;27439;-73
2022/05/02 07:58:29;;;;;;;3.50;3.30;;;19.40;61.00;;;;;;943254;149;27373;-74
2022/05/02 08:00:56;;;;;;;5.75;3.95;;;19.50;61.00;;;;;;941987;149;27365;-73
2022/05/02 08:03:24;;;;;;;3.83;3.52;;;19.50;61.00;;;;;;944171;149;27379;-74
2022/05/02 08:05:49;;;;;;;3.60;3.30;;;19.50;61.10;;;;;;923607;150;27340;-73
2022/05/02 08:08:16;;;;;;;3.77;3.47;;;19.60;61.10;;;;;;938907;149;27353;-74
2022/05/02 08:10:45;;;;;;;3.67;3.37;;;19.60;61.30;;;;;;938126;149;27446;-73
2022/05/02 08:13:36;;;;;;;3.95;3.55;;;19.70;61.30;;;;;;938676;149;28426;-73
2022/05/02 08:16:02;;;;;;;4.40;3.62;;;19.80;61.70;;;;;;939540;149;27347;-73
2022/05/02 08:18:32;;;;;;;3.50;3.20;;;19.90;61.40;;;;;;941455;149;27428;-73
2022/05/02 08:21:01;;;;;;;5.15;3.80;;;20.00;61.30;;;;;;940110;149;27336;-73
2022/05/02 08:29:16;;;;;;;3.98;3.60;;;20.20;60.70;;;;;;976541;145;37440;-72
2022/05/02 08:31:45;;;;;;;3.70;3.40;;;20.40;59.90;;;;;;964068;146;27330;-72
2022/05/02 08:34:17;;;;;;;3.40;3.10;;;20.40;59.60;;;;;;946338;146;27385;-72
2022/05/02 08:36:46;;;;;;;3.62;3.10;;;20.50;59.40;;;;;;965256;146;27346;-72
2022/05/02 08:39:12;;;;;;;3.87;3.30;;;20.40;59.00;;;;;;937288;146;27301;-72
2022/05/02 08:42:01;;;;;;;3.33;3.12;;;20.40;58.90;;;;;;966771;146;27750;-72
2022/05/02 08:44:30;;;;;;;3.58;3.30;;;20.40;58.80;;;;;;961247;146;27760;-73
2022/05/02 08:47:14;;;;;;;3.40;3.05;;;20.40;58.70;;;;;;963456;146;27327;-73
2022/05/02 08:49:41;;;;;;;3.55;3.12;;;20.30;59.30;;;;;;966419;146;27359;-73
2022/05/02 08:52:35;;;;;;;3.27;3.08;;;20.30;58.90;;;;;;965686;146;27808;-73
2022/05/02 08:55:23;;;;;;;4.15;3.45;;;20.30;58.90;;;;;;965103;146;27374;-73
2022/05/02 08:58:11;;;;;;;3.85;3.20;;;20.40;59.10;;;;;;965388;146;27416;-73
2022/05/02 09:01:02;;;;;;;3.33;3.02;;;20.40;59.30;;;;;;965238;146;27266;-73
2022/05/02 09:04:02;;;;;;;3.95;2.83;;;20.60;59.50;;;;;;962682;146;28048;-73
2022/05/02 09:06:51;;;;;;;3.33;2.95;;;20.80;59.50;;;;;;958018;146;27400;-73
2022/05/02 09:09:47;;;;;;;3.00;2.80;;;21.10;59.50;;;;;;955857;148;27303;-73
2022/05/02 09:12:17;;;;;;;2.95;2.75;;;21.50;59.50;;;;;;957273;149;27301;-73
2022/05/02 09:15:20;;;;;;;3.72;2.95;;;21.90;59.40;;;;;;959613;149;27316;-73
2022/05/02 09:18:08;;;;;;;2.92;2.72;;;22.20;59.00;;;;;;957865;149;27304;-73
2022/05/02 09:20:58;;;;;;;2.90;2.60;;;22.70;58.80;;;;;;957410;149;27348;-73
2022/05/02 09:23:47;;;;;;;2.92;2.70;;;23.10;58.30;;;;;;957567;149;27771;-74
2022/05/02 09:26:13;;;;;;;3.15;2.80;;;23.60;57.80;;;;;;955810;147;27347;-74
2022/05/02 09:28:58;;;;;;;3.30;2.67;;;24.00;57.20;;;;;;954250;149;27368;-73
2022/05/02 09:31:50;;;;;;;2.90;2.70;;;24.30;56.60;;;;;;955673;148;27292;-73
2022/05/02 09:34:17;;;;;;;3.55;2.60;;;24.70;56.00;;;;;;956908;148;27424;-73
2022/05/02 09:36:55;;;;;;;3.08;2.55;;;25.10;55.70;;;;;;958439;148;27240;-74
2022/05/02 09:39:24;;;;;;;2.60;2.40;;;25.40;55.00;;;;;;957188;146;27420;-74
2022/05/02 09:41:51;;;;;;;3.02;2.72;;;25.80;54.30;;;;;;956064;149;27329;-74
2022/05/02 09:50:14;;;;;;;3.02;2.72;;;26.30;52.40;;;;;;940664;149;27308;-74
2022/05/02 09:52:59;;;;;;;2.58;2.27;;;26.30;52.10;;;;;;955390;149;27304;-74
2022/05/02 09:58:34;;;;;;;2.85;2.65;;;26.50;51.80;;;;;;958226;148;27469;-74
2022/05/02 10:01:13;;;;;;;2.55;2.35;;;26.60;51.40;;;;;;959061;149;27461;-74
2022/05/02 10:04:12;;;;;;;5.55;3.10;;;26.70;51.30;;;;;;906094;155;27567;-74
2022/05/02 10:06:43;;;;;;;2.77;2.58;;;26.90;51.30;;;;;;957907;149;27388;-74
2022/05/02 10:09:11;;;;;;;3.25;2.77;;;27.10;51.40;;;;;;957476;149;27340;-74
2022/05/02 10:11:41;;;;;;;3.05;2.83;;;27.20;51.20;;;;;;958599;149;27331;-74
2022/05/02 10:14:13;;;;;;;3.10;2.37;;;27.40;51.30;;;;;;957733;146;27331;-74
2022/05/02 10:16:42;;;;;;;3.98;2.65;;;27.60;50.90;;;;;;954506;149;27370;-74
2022/05/02 10:19:18;;;;;;;3.98;2.58;;;27.90;50.30;;;;;;957581;149;27778;-74
2022/05/02 10:22:18;;;;;;;2.87;2.55;;;28.10;49.60;;;;;;956643;149;27344;-74
2022/05/02 10:24:57;;;;;;;2.87;2.58;;;28.20;48.80;;;;;;958727;149;27292;-74
2022/05/02 10:27:45;;;;;;;5.17;2.90;;;28.30;48.50;;;;;;957586;149;27334;-74
2022/05/02 10:30:12;;;;;;;6.30;2.52;;;28.30;47.40;;;;;;958055;148;27363;-74
2022/05/02 10:32:41;;;;;;;3.35;2.80;;;28.20;47.30;;;;;;960182;146;27297;-74
2022/05/02 10:35:07;;;;;;;2.52;2.33;;;28.10;47.10;;;;;;945619;149;27340;-74
2022/05/02 10:37:37;;;;;;;2.50;2.30;;;28.00;46.90;;;;;;961697;146;28068;-74
2022/05/02 10:40:04;;;;;;;2.80;2.60;;;27.90;46.90;;;;;;943955;149;27349;-74
2022/05/02 10:42:30;;;;;;;3.05;2.45;;;27.80;46.90;;;;;;946709;148;28412;-73
2022/05/02 10:44:57;;;;;;;2.72;2.40;;;27.70;46.40;;;;;;939565;149;27353;-73
2022/05/02 10:47:23;;;;;;;2.80;2.60;;;27.60;46.50;;;;;;955302;148;27388;-74
2022/05/02 10:50:20;;;;;;;2.90;2.70;;;27.50;46.40;;;;;;945661;148;27341;-74
2022/05/02 10:52:46;;;;;;;2.98;2.65;;;27.40;46.50;;;;;;954036;148;27353;-74
2022/05/02 10:55:13;;;;;;;3.30;3.00;;;27.30;46.70;;;;;;952109;148;27304;-73
2022/05/02 10:57:40;;;;;;;3.10;2.80;;;27.10;46.60;;;;;;944560;148;27320;-73
2022/05/02 11:00:06;;;;;;;2.92;2.72;;;27.00;46.50;;;;;;961876;146;27363;-73
2022/05/02 11:02:38;;;;;;;3.35;3.02;;;26.90;46.30;;;;;;956149;148;27331;-74
2022/05/02 11:05:11;;;;;;;4.08;3.20;;;26.80;46.60;;;;;;943074;148;27364;-73
2022/05/02 11:07:44;;;;;;;5.95;3.50;;;26.70;46.60;;;;;;962123;146;27386;-73
2022/05/02 11:10:10;;;;;;;3.10;2.90;;;26.60;46.50;;;;;;962920;146;27302;-73
2022/05/02 11:12:43;;;;;;;3.25;2.80;;;26.40;46.50;;;;;;960744;148;27383;-74
2022/05/02 11:15:18;;;;;;;3.62;2.90;;;26.30;46.80;;;;;;961023;148;27436;-73
2022/05/02 11:18:00;;;;;;;3.52;3.00;;;26.20;47.00;;;;;;960375;148;27435;-73
2022/05/02 11:20:41;;;;;;;3.90;2.95;;;26.10;46.60;;;;;;960412;148;27436;-73
2022/05/02 11:23:10;;;;;;;3.50;2.90;;;26.00;47.00;;;;;;942269;149;27433;-73
2022/05/02 11:25:37;;;;;;;3.00;2.80;;;25.90;47.30;;;;;;944519;149;27799;-73
2022/05/02 11:28:15;;;;;;;3.12;2.83;;;25.90;47.30;;;;;;962177;146;27986;-73
2022/05/02 11:30:42;;;;;;;3.85;2.95;;;25.80;47.50;;;;;;932559;150;27494;-74
2022/05/02 11:33:11;;;;;;;3.83;3.35;;;25.80;47.60;;;;;;925714;150;27402;-74
2022/05/02 11:35:38;;;;;;;3.30;3.02;;;25.80;46.90;;;;;;948323;147;27413;-73
2022/05/02 11:38:23;;;;;;;4.50;2.75;;;25.70;47.10;;;;;;948265;147;27330;-74
2022/05/02 11:40:52;;;;;;;3.22;2.98;;;25.60;47.00;;;;;;934313;149;27459;-73
2022/05/02 11:43:22;;;;;;;2.52;2.33;;;25.50;47.10;;;;;;948356;147;27355;-73
2022/05/02 11:45:51;;;;;;;4.22;2.83;;;25.40;47.10;;;;;;934646;149;27313;-74
2022/05/02 11:48:20;;;;;;;4.22;3.10;;;25.30;47.40;;;;;;928188;149;27326;-74
2022/05/02 11:50:49;;;;;;;3.42;3.12;;;25.30;47.30;;;;;;947175;147;27329;-73
2022/05/02 11:53:16;;;;;;;3.75;2.72;;;25.20;47.40;;;;;;941113;149;27369;-74
2022/05/02 11:55:42;;;;;;;3.17;2.75;;;25.20;47.70;;;;;;941028;149;27330;-74
2022/05/02 11:58:24;;;;;;;3.70;3.40;;;25.20;48.00;;;;;;940441;149;27467;-73
2022/05/02 12:01:04;;;;;;;3.62;3.33;;;25.20;47.70;;;;;;936421;149;27381;-73
2022/05/02 12:03:29;;;;;;;3.98;3.62;;;25.20;47.80;;;;;;933890;150;27381;-74
2022/05/02 12:05:56;;;;;;;4.30;2.95;;;25.30;47.50;;;;;;939595;149;27330;-73
2022/05/02 12:08:32;;;;;;;2.95;2.75;;;25.30;47.40;;;;;;941454;149;27376;-74
2022/05/02 12:11:07;;;;;;;3.25;2.85;;;25.30;47.40;;;;;;941569;149;27412;-73
2022/05/02 12:13:36;;;;;;;3.08;2.87;;;25.30;47.40;;;;;;942224;149;27466;-73
2022/05/02 12:16:09;;;;;;;3.47;3.10;;;25.30;47.30;;;;;;947815;147;27317;-73
2022/05/02 12:18:47;;;;;;;3.45;3.15;;;25.30;47.20;;;;;;948108;147;27363;-74
2022/05/02 12:21:36;;;;;;;3.65;3.35;;;25.20;47.20;;;;;;925092;150;27261;-73
2022/05/02 12:24:03;;;;;;;5.85;3.50;;;25.20;46.60;;;;;;923684;151;27319;-74
2022/05/02 12:26:29;;;;;;;3.80;3.50;;;25.10;46.60;;;;;;943581;149;27330;-74
2022/05/02 12:28:58;;;;;;;2.65;2.47;;;25.10;46.70;;;;;;936241;149;27466;-74
2022/05/02 12:31:26;;;;;;;3.05;2.77;;;25.00;46.90;;;;;;932729;150;27374;-74
2022/05/02 12:33:57;;;;;;;4.42;2.85;;;25.00;46.90;;;;;;933215;149;27307;-73
2022/05/02 12:36:24;;;;;;;3.25;2.90;;;25.10;47.00;;;;;;934054;149;27314;-73
2022/05/02 12:39:05;;;;;;;3.25;2.95;;;25.10;46.90;;;;;;924769;151;27448;-74
2022/05/02 12:41:32;;;;;;;2.70;2.50;;;25.10;46.80;;;;;;926181;150;27332;-74
2022/05/02 12:44:07;;;;;;;2.58;2.37;;;25.20;47.00;;;;;;939949;149;27323;-73
2022/05/02 12:46:38;;;;;;;3.55;2.72;;;25.20;47.20;;;;;;948003;147;27296;-73
2022/05/02 12:49:06;;;;;;;3.42;2.98;;;25.20;47.30;;;;;;931433;149;27338;-73
2022/05/02 12:51:30;;;;;;;3.72;2.45;;;25.30;47.10;;;;;;945839;147;27337;-74
2022/05/02 12:54:14;;;;;;;2.92;2.65;;;25.40;47.10;;;;;;928388;149;28310;-74
2022/05/02 13:02:34;;;;;;;2.67;2.47;;;25.90;46.70;;;;;;925647;150;27362;-73
2022/05/02 13:05:01;;;;;;;2.90;2.70;;;26.00;46.50;;;;;;942118;150;27310;-74
2022/05/02 13:07:28;;;;;;;3.35;3.05;;;26.20;46.30;;;;;;943749;149;27346;-74
2022/05/02 13:09:54;;;;;;;4.60;2.65;;;26.30;46.10;;;;;;943312;149;27443;-74
2022/05/02 13:12:22;;;;;;;3.17;2.87;;;26.40;46.00;;;;;;949853;147;27378;-74
2022/05/02 13:14:47;;;;;;;3.15;2.60;;;26.50;45.90;;;;;;950252;147;27321;-74
2022/05/02 13:17:14;;;;;;;2.67;2.47;;;26.60;45.80;;;;;;949782;147;27301;-74
2022/05/02 13:19:42;;;;;;;3.27;2.60;;;26.70;45.60;;;;;;925862;150;27432;-74
2022/05/02 13:22:07;;;;;;;2.60;2.33;;;26.80;45.50;;;;;;932124;150;27427;-74
2022/05/02 13:24:37;;;;;;;2.85;2.58;;;26.90;45.30;;;;;;948371;147;27269;-74
2022/05/02 13:27:03;;;;;;;4.60;2.87;;;27.10;45.20;;;;;;936283;149;27352;-74
2022/05/02 13:29:48;;;;;;;2.85;2.65;;;27.20;45.10;;;;;;933204;149;27440;-74
2022/05/02 13:32:18;;;;;;;2.92;2.58;;;27.30;44.70;;;;;;945220;146;27445;-74
2022/05/02 13:34:51;;;;;;;2.60;2.40;;;27.40;44.70;;;;;;928408;150;27483;-74
2022/05/02 13:37:17;;;;;;;3.35;2.60;;;27.50;44.40;;;;;;931934;149;27343;-74